Time;durP1;ratioP1;P1;durP2;ratioP2;P2;SDS_P1;SDS_P2;PMS_P1;PMS_P2;Temp;Humidity;BMP_temperature;BMP_pressure;BME280_temperature;BME280_humidity;BME280_pressure;Samples;Min_cycle;Max_cycle;Signal;HPM_P1;HPM_P2
2023/01/19 00:01:34;;;;;;;17.53;9.73;;;0.00;99.90;;;;;;5037180;28;20291;-66
2023/01/19 00:04:00;;;;;;;12.67;7.93;;;-0.10;99.90;;;;;;5027923;28;20571;-67
2023/01/19 00:06:26;;;;;;;12.47;9.40;;;-0.20;99.90;;;;;;5022422;28;20898;-65
2023/01/19 00:08:51;;;;;;;12.40;7.77;;;-0.30;99.90;;;;;;5028015;28;20209;-65
2023/01/19 00:11:17;;;;;;;11.03;7.57;;;-0.30;99.90;;;;;;5025243;28;20198;-63
2023/01/19 00:13:49;;;;;;;11.67;7.47;;;-0.40;99.90;;;;;;5025748;28;20288;-65
2023/01/19 00:16:18;;;;;;;11.93;7.83;;;-0.40;99.90;;;;;;5023430;28;20205;-63
2023/01/19 00:18:44;;;;;;;13.03;8.40;;;-0.50;99.90;;;;;;5023579;28;20212;-64
2023/01/19 00:21:10;;;;;;;13.43;8.10;;;-0.50;99.90;;;;;;5030481;28;20210;-64
2023/01/19 00:23:35;;;;;;;11.73;8.83;;;-0.40;99.90;;;;;;5036375;28;21213;-63
2023/01/19 00:26:01;;;;;;;11.43;8.57;;;-0.40;99.90;;;;;;5036330;28;20233;-63
2023/01/19 00:28:26;;;;;;;14.73;8.30;;;-0.40;99.90;;;;;;5032888;28;20204;-63
2023/01/19 00:30:52;;;;;;;12.73;9.43;;;-0.50;99.90;;;;;;5036259;28;20257;-69
2023/01/19 00:33:17;;;;;;;16.20;8.63;;;-0.60;99.90;;;;;;5028793;28;20924;-60
2023/01/19 00:35:43;;;;;;;12.30;7.17;;;-0.50;99.90;;;;;;5035938;28;20249;-60
2023/01/19 00:38:10;;;;;;;11.20;8.00;;;-0.60;99.90;;;;;;5036465;28;20196;-62
2023/01/19 00:40:35;;;;;;;10.90;8.23;;;-0.60;99.90;;;;;;5036035;28;20737;-62
2023/01/19 00:43:02;;;;;;;14.70;8.67;;;-0.70;99.90;;;;;;5034720;28;20396;-61
2023/01/19 00:45:28;;;;;;;13.53;7.80;;;-0.70;99.90;;;;;;5036230;28;20586;-61
2023/01/19 00:47:55;;;;;;;12.30;8.80;;;-0.80;99.90;;;;;;5033178;28;20710;-63
2023/01/19 00:50:25;;;;;;;11.77;8.23;;;-0.80;99.90;;;;;;5033304;28;20916;-61
2023/01/19 00:52:53;;;;;;;14.07;7.50;;;-0.80;99.90;;;;;;5036004;28;20217;-59
2023/01/19 00:55:18;;;;;;;15.60;9.37;;;-0.90;99.90;;;;;;5034001;28;20252;-58
2023/01/19 00:57:44;;;;;;;10.33;8.00;;;-0.90;99.90;;;;;;5028572;28;20233;-58
2023/01/19 01:00:12;;;;;;;16.03;10.20;;;-0.90;99.90;;;;;;5024730;28;20206;-59
2023/01/19 01:02:39;;;;;;;17.17;9.17;;;-1.00;99.90;;;;;;5025240;28;20287;-58
2023/01/19 01:05:05;;;;;;;12.37;8.77;;;-1.00;99.90;;;;;;5025851;28;20205;-56
2023/01/19 01:07:39;;;;;;;12.53;9.57;;;-1.00;99.90;;;;;;5024394;28;20236;-58
2023/01/19 01:10:16;;;;;;;10.70;8.73;;;-1.00;99.90;;;;;;5025926;28;21009;-59
2023/01/19 01:12:42;;;;;;;9.53;7.77;;;-1.10;99.90;;;;;;5024041;28;20238;-57
2023/01/19 01:15:10;;;;;;;16.73;9.03;;;-1.10;99.90;;;;;;5025086;28;21033;-58
2023/01/19 01:17:36;;;;;;;11.73;8.37;;;-1.10;99.90;;;;;;5025742;28;20295;-58
2023/01/19 01:20:03;;;;;;;12.80;8.57;;;-1.10;99.90;;;;;;5027666;28;20323;-57
2023/01/19 01:22:29;;;;;;;15.10;8.67;;;-1.10;99.90;;;;;;5023250;28;20679;-60
2023/01/19 01:24:55;;;;;;;13.73;9.87;;;-1.10;99.90;;;;;;5028181;28;20567;-58
2023/01/19 01:27:21;;;;;;;14.87;10.70;;;-1.20;99.90;;;;;;5016793;28;20212;-57
2023/01/19 01:29:46;;;;;;;14.60;10.07;;;-1.20;99.90;;;;;;5028311;28;20816;-57
2023/01/19 01:32:15;;;;;;;15.00;10.07;;;-1.30;99.90;;;;;;5028750;28;20199;-58
2023/01/19 01:34:41;;;;;;;14.27;9.63;;;-1.30;99.90;;;;;;5035664;28;20469;-57
2023/01/19 01:37:07;;;;;;;12.47;9.17;;;-1.20;99.90;;;;;;5033616;28;20713;-57
2023/01/19 01:39:33;;;;;;;13.50;9.23;;;-1.30;99.90;;;;;;5035792;28;20195;-59
2023/01/19 01:41:59;;;;;;;14.10;10.40;;;-1.40;99.90;;;;;;5035515;28;20693;-58
2023/01/19 01:44:52;;;;;;;15.40;9.63;;;-1.40;99.90;;;;;;5031042;28;20430;-57
2023/01/19 01:47:33;;;;;;;18.27;9.50;;;-1.40;99.90;;;;;;5035978;28;20566;-57
2023/01/19 01:50:05;;;;;;;13.80;9.50;;;-1.50;99.90;;;;;;5031758;28;20241;-58
2023/01/19 01:52:33;;;;;;;17.63;10.83;;;-1.50;99.90;;;;;;5035538;28;20530;-57
2023/01/19 01:55:01;;;;;;;14.63;10.13;;;-1.50;99.90;;;;;;5035618;28;20541;-59
2023/01/19 01:57:26;;;;;;;14.23;9.57;;;-1.50;99.90;;;;;;5033573;28;20201;-56
2023/01/19 01:59:54;;;;;;;14.77;11.00;;;-1.50;99.90;;;;;;5036164;28;20729;-57
2023/01/19 02:05:28;;;;;;;12.50;8.73;;;-1.60;99.90;;;;;;5038994;28;20257;-57
2023/01/19 02:13:39;;;;;;;16.23;11.03;;;-1.60;99.90;;;;;;5039088;28;20260;-57
2023/01/19 02:16:08;;;;;;;13.07;9.77;;;-1.60;99.90;;;;;;5036329;28;20230;-58
2023/01/19 02:18:35;;;;;;;14.00;9.37;;;-1.60;99.90;;;;;;5036816;28;20353;-57
2023/01/19 02:21:22;;;;;;;15.67;10.87;;;-1.60;99.90;;;;;;5035788;28;20287;-57
2023/01/19 02:23:48;;;;;;;15.63;9.50;;;-1.60;99.90;;;;;;5036828;28;20244;-57
2023/01/19 02:26:20;;;;;;;12.77;9.47;;;-1.50;99.90;;;;;;5037429;28;20948;-58
2023/01/19 02:28:58;;;;;;;15.23;10.70;;;-1.60;99.90;;;;;;5038316;28;20219;-57
2023/01/19 02:31:25;;;;;;;18.27;10.17;;;-1.60;99.90;;;;;;5038448;28;20231;-57
2023/01/19 02:33:51;;;;;;;17.83;9.30;;;-1.60;99.90;;;;;;5037921;28;20201;-56
2023/01/19 02:36:21;;;;;;;13.83;10.77;;;-1.60;99.90;;;;;;5037908;28;20286;-58
2023/01/19 02:38:48;;;;;;;16.90;10.33;;;-1.60;99.90;;;;;;5034731;28;20198;-57
2023/01/19 02:41:21;;;;;;;13.07;10.30;;;-1.60;99.90;;;;;;5037975;28;20203;-57
2023/01/19 02:43:48;;;;;;;13.43;9.43;;;-1.60;99.90;;;;;;5033727;28;20209;-57
2023/01/19 02:46:14;;;;;;;11.73;8.63;;;-1.60;99.90;;;;;;5038201;28;20200;-58
2023/01/19 02:48:40;;;;;;;17.60;10.00;;;-1.70;99.90;;;;;;5036797;28;20240;-57
2023/01/19 02:51:24;;;;;;;13.77;9.90;;;-1.70;99.90;;;;;;5038081;28;20291;-57
2023/01/19 02:54:26;;;;;;;14.10;9.60;;;-1.70;99.90;;;;;;5037222;28;20203;-58
2023/01/19 02:57:31;;;;;;;18.17;10.00;;;-1.60;99.90;;;;;;5029215;28;20201;-57
2023/01/19 03:00:11;;;;;;;17.33;10.57;;;-1.60;99.90;;;;;;5038034;28;20701;-57
2023/01/19 03:02:49;;;;;;;14.50;10.23;;;-1.70;99.90;;;;;;5036410;28;20239;-57
2023/01/19 03:05:36;;;;;;;12.73;9.73;;;-1.70;99.90;;;;;;5038079;28;20228;-57
2023/01/19 03:08:25;;;;;;;15.27;10.53;;;-1.70;99.90;;;;;;5037820;28;20211;-57
2023/01/19 03:11:06;;;;;;;13.40;10.30;;;-1.70;99.90;;;;;;5037398;28;20212;-58
2023/01/19 03:13:43;;;;;;;13.87;9.70;;;-1.80;99.90;;;;;;5037989;28;20203;-58
2023/01/19 03:16:42;;;;;;;16.17;11.17;;;-1.80;99.90;;;;;;5037378;28;20690;-57
2023/01/19 03:19:26;;;;;;;13.23;10.77;;;-1.80;99.90;;;;;;5037556;28;20204;-57
2023/01/19 03:22:00;;;;;;;16.07;10.70;;;-1.80;99.90;;;;;;5035368;28;20215;-58
2023/01/19 03:24:30;;;;;;;14.80;10.73;;;-1.90;99.90;;;;;;5037634;28;20202;-58
2023/01/19 03:26:59;;;;;;;14.87;10.00;;;-1.90;99.90;;;;;;5037145;28;21023;-57
2023/01/19 03:29:31;;;;;;;18.03;11.20;;;-1.90;99.90;;;;;;5035222;28;20222;-56
2023/01/19 03:32:00;;;;;;;14.33;10.97;;;-1.90;99.90;;;;;;5031703;28;20722;-57
2023/01/19 03:34:27;;;;;;;14.67;10.60;;;-1.90;99.90;;;;;;5035184;28;20702;-58
2023/01/19 03:36:57;;;;;;;16.90;12.17;;;-2.00;99.90;;;;;;5036542;28;20241;-57
2023/01/19 03:39:25;;;;;;;16.10;11.23;;;-1.90;99.90;;;;;;5035004;28;20206;-58
2023/01/19 03:42:01;;;;;;;17.43;11.10;;;-1.90;99.90;;;;;;5036972;28;20287;-58
2023/01/19 03:44:29;;;;;;;17.33;11.83;;;-2.00;99.90;;;;;;5037012;28;20205;-57
2023/01/19 03:46:57;;;;;;;16.10;12.40;;;-1.90;99.90;;;;;;5035652;28;20220;-57
2023/01/19 03:49:22;;;;;;;21.83;11.73;;;-1.90;99.90;;;;;;5036728;28;20260;-57
2023/01/19 03:51:48;;;;;;;19.87;13.00;;;-1.80;99.90;;;;;;5036888;28;20312;-59
2023/01/19 03:54:14;;;;;;;18.90;10.23;;;-1.90;99.90;;;;;;5036730;28;20315;-57
2023/01/19 03:56:39;;;;;;;17.60;12.00;;;-1.90;99.90;;;;;;5035093;28;20204;-58
2023/01/19 03:59:06;;;;;;;15.23;12.00;;;-2.00;99.90;;;;;;5036907;28;20239;-57
2023/01/19 04:01:31;;;;;;;29.50;17.13;;;-2.00;99.90;;;;;;5032888;28;20220;-57
2023/01/19 04:03:57;;;;;;;17.43;13.93;;;-2.00;99.90;;;;;;5036619;28;20950;-57
2023/01/19 04:06:22;;;;;;;15.10;12.73;;;-2.00;99.90;;;;;;5034457;28;20227;-57
2023/01/19 04:08:49;;;;;;;18.83;13.23;;;-1.90;99.90;;;;;;5034418;28;20199;-57
2023/01/19 04:11:15;;;;;;;19.73;12.67;;;-1.90;99.90;;;;;;5036457;28;20673;-58
2023/01/19 04:13:41;;;;;;;19.70;11.67;;;-1.90;99.90;;;;;;5036436;28;20214;-58
2023/01/19 04:16:08;;;;;;;15.60;12.57;;;-2.00;99.90;;;;;;5035867;28;20223;-57
2023/01/19 04:18:34;;;;;;;16.77;13.63;;;-2.00;99.90;;;;;;5036139;28;20207;-57
2023/01/19 04:21:05;;;;;;;14.60;12.47;;;-2.00;99.90;;;;;;5035308;28;20349;-59
2023/01/19 04:23:32;;;;;;;14.77;11.57;;;-2.10;99.90;;;;;;5022807;28;20199;-57
2023/01/19 04:26:02;;;;;;;24.50;15.00;;;-2.10;99.90;;;;;;5036293;28;20264;-56
2023/01/19 04:28:28;;;;;;;19.63;13.27;;;-2.10;99.90;;;;;;5035755;28;20725;-56
2023/01/19 04:30:54;;;;;;;20.07;12.87;;;-2.00;99.90;;;;;;5034570;28;20199;-57
2023/01/19 04:33:21;;;;;;;15.13;12.00;;;-2.10;99.90;;;;;;5036274;28;20201;-56
2023/01/19 04:35:47;;;;;;;14.90;10.67;;;-2.10;99.90;;;;;;5033061;28;20614;-56
2023/01/19 04:38:13;;;;;;;22.63;13.93;;;-2.10;99.90;;;;;;5030828;28;20291;-57
2023/01/19 04:40:39;;;;;;;16.40;12.93;;;-2.10;99.90;;;;;;5035961;28;20350;-57
2023/01/19 04:43:05;;;;;;;15.97;11.63;;;-2.10;99.90;;;;;;5028683;28;20204;-57
2023/01/19 04:45:30;;;;;;;24.73;17.10;;;-2.10;99.90;;;;;;5026364;28;20216;-57
2023/01/19 04:47:55;;;;;;;19.23;13.77;;;-2.10;99.90;;;;;;5025910;28;20748;-56
2023/01/19 04:50:21;;;;;;;19.70;13.93;;;-2.00;99.90;;;;;;5025981;28;20214;-57
2023/01/19 04:52:47;;;;;;;18.63;13.00;;;-1.80;99.90;;;;;;5025717;28;20212;-56
2023/01/19 04:55:13;;;;;;;20.13;12.57;;;-1.70;99.90;;;;;;5025661;28;20244;-57
2023/01/19 04:57:39;;;;;;;15.63;12.07;;;-1.80;99.90;;;;;;5028913;28;20212;-56
2023/01/19 05:00:05;;;;;;;17.00;12.70;;;-1.80;99.90;;;;;;5022037;28;20680;-57
2023/01/19 05:02:31;;;;;;;19.17;13.00;;;-1.80;99.90;;;;;;5026460;28;20208;-56
2023/01/19 05:04:57;;;;;;;18.57;11.63;;;-1.80;99.90;;;;;;5026848;28;20204;-57
2023/01/19 05:07:22;;;;;;;19.13;11.13;;;-1.90;99.90;;;;;;5026493;28;20230;-57
2023/01/19 05:09:48;;;;;;;15.23;11.60;;;-1.90;99.90;;;;;;5024724;28;20283;-57
2023/01/19 05:12:13;;;;;;;16.90;11.30;;;-2.00;99.90;;;;;;5023467;28;20199;-57
2023/01/19 05:14:38;;;;;;;15.60;11.70;;;-2.00;99.90;;;;;;5025307;28;20343;-57
2023/01/19 05:17:04;;;;;;;18.07;13.13;;;-2.00;99.90;;;;;;5025145;28;20251;-58
2023/01/19 05:19:30;;;;;;;15.77;11.43;;;-2.00;99.90;;;;;;5028704;28;20188;-58
2023/01/19 05:21:55;;;;;;;16.37;11.83;;;-2.00;99.90;;;;;;5029351;28;20212;-57
2023/01/19 05:24:20;;;;;;;20.57;12.57;;;-2.10;99.90;;;;;;5020348;28;20208;-58
2023/01/19 05:26:46;;;;;;;18.60;13.00;;;-2.10;99.90;;;;;;5025393;28;20208;-58
2023/01/19 05:29:11;;;;;;;13.10;11.67;;;-2.20;99.90;;;;;;5026270;28;20193;-56
2023/01/19 05:31:37;;;;;;;15.50;12.00;;;-2.20;99.90;;;;;;5026027;28;20196;-57
2023/01/19 05:34:03;;;;;;;16.80;12.40;;;-2.30;99.90;;;;;;5026057;28;20196;-59
2023/01/19 05:36:29;;;;;;;20.07;12.27;;;-2.30;99.90;;;;;;5029582;28;20229;-58
2023/01/19 05:38:55;;;;;;;16.60;12.87;;;-2.20;99.90;;;;;;5027371;28;20791;-57
2023/01/19 05:41:20;;;;;;;17.77;11.80;;;-2.10;99.90;;;;;;5029262;28;20250;-58
2023/01/19 05:43:45;;;;;;;18.00;12.00;;;-2.10;99.90;;;;;;5029235;28;20286;-58
2023/01/19 05:46:11;;;;;;;16.73;11.60;;;-2.20;99.90;;;;;;5028374;28;20207;-58
2023/01/19 05:48:37;;;;;;;16.77;13.00;;;-2.20;99.90;;;;;;5028753;28;20599;-58
2023/01/19 05:51:03;;;;;;;17.97;12.03;;;-2.20;99.90;;;;;;5027113;28;20198;-59
2023/01/19 05:53:29;;;;;;;18.10;12.43;;;-2.20;99.90;;;;;;5030082;28;20212;-59
2023/01/19 05:55:59;;;;;;;16.40;11.60;;;-2.20;99.90;;;;;;5031378;28;20277;-56
2023/01/19 05:58:25;;;;;;;17.03;12.50;;;-2.10;99.90;;;;;;5027268;28;20311;-57
2023/01/19 06:00:50;;;;;;;17.77;13.07;;;-2.20;99.90;;;;;;5027960;28;20282;-58
2023/01/19 06:03:16;;;;;;;19.73;12.70;;;-2.10;99.90;;;;;;5027442;28;20196;-58
2023/01/19 06:05:41;;;;;;;19.97;13.23;;;-2.20;99.90;;;;;;5023295;28;20288;-58
2023/01/19 06:08:07;;;;;;;19.73;13.13;;;-2.10;99.90;;;;;;5025627;28;20227;-58
2023/01/19 06:10:32;;;;;;;14.87;11.67;;;-2.00;99.90;;;;;;5028839;28;20200;-57
2023/01/19 06:12:58;;;;;;;16.80;11.70;;;-1.90;99.90;;;;;;5029134;28;20210;-57
2023/01/19 06:15:23;;;;;;;17.90;11.90;;;-1.90;99.90;;;;;;5027000;28;20231;-57
2023/01/19 06:17:49;;;;;;;16.63;11.03;;;-1.90;99.90;;;;;;5028809;28;20212;-57
2023/01/19 06:20:14;;;;;;;23.87;13.57;;;-1.90;99.90;;;;;;5029144;28;20563;-56
2023/01/19 06:22:40;;;;;;;14.47;10.77;;;-1.90;99.90;;;;;;5029037;28;20239;-57
2023/01/19 06:25:06;;;;;;;16.07;11.87;;;-1.90;99.90;;;;;;5029662;28;20201;-58
2023/01/19 06:27:31;;;;;;;17.40;11.60;;;-1.90;99.90;;;;;;5026695;28;20642;-58
2023/01/19 06:29:56;;;;;;;12.73;10.90;;;-2.00;99.90;;;;;;5027949;28;20208;-57
2023/01/19 06:32:22;;;;;;;13.80;11.10;;;-2.00;99.90;;;;;;5028243;28;20211;-57
2023/01/19 06:34:47;;;;;;;16.63;12.57;;;-2.00;99.90;;;;;;5028415;28;20212;-57
2023/01/19 06:37:15;;;;;;;17.03;10.80;;;-2.00;99.90;;;;;;5031623;28;20243;-58
2023/01/19 06:39:41;;;;;;;13.77;11.07;;;-2.00;99.90;;;;;;5027264;28;20207;-58
2023/01/19 06:42:07;;;;;;;15.57;11.40;;;-2.00;99.90;;;;;;5019375;28;20194;-58
2023/01/19 06:44:33;;;;;;;17.23;12.87;;;-2.00;99.90;;;;;;5034096;28;20211;-58
2023/01/19 06:46:59;;;;;;;16.97;10.87;;;-2.10;99.90;;;;;;5037407;28;20262;-58
2023/01/19 06:49:24;;;;;;;24.07;15.50;;;-2.10;99.90;;;;;;5033782;28;20234;-58
2023/01/19 06:51:49;;;;;;;18.27;12.90;;;-2.10;99.90;;;;;;5037063;28;21048;-58
2023/01/19 06:54:16;;;;;;;14.63;11.00;;;-2.10;99.90;;;;;;5032690;28;20425;-58
2023/01/19 06:56:41;;;;;;;20.03;12.07;;;-2.10;99.90;;;;;;5038290;28;20206;-56
2023/01/19 06:59:08;;;;;;;17.83;12.17;;;-2.00;99.90;;;;;;5037327;28;20249;-58
2023/01/19 07:01:34;;;;;;;13.97;11.10;;;-2.00;99.90;;;;;;5025505;28;20673;-57
2023/01/19 07:04:00;;;;;;;15.57;10.60;;;-2.00;99.90;;;;;;5027662;28;20208;-57
2023/01/19 07:06:26;;;;;;;20.10;11.73;;;-2.00;99.90;;;;;;5026662;28;20190;-57
2023/01/19 07:08:52;;;;;;;13.93;10.43;;;-2.00;99.90;;;;;;5031127;28;20279;-56
2023/01/19 07:11:18;;;;;;;17.67;11.40;;;-2.00;99.90;;;;;;5024300;28;20251;-56
2023/01/19 07:13:50;;;;;;;14.70;10.40;;;-2.10;99.90;;;;;;5028399;28;20209;-57
2023/01/19 07:16:15;;;;;;;15.97;10.60;;;-2.20;99.90;;;;;;5028019;28;20242;-56
2023/01/19 07:18:41;;;;;;;19.17;12.40;;;-2.20;99.90;;;;;;5026583;28;20199;-57
2023/01/19 07:21:07;;;;;;;13.20;10.10;;;-2.10;99.90;;;;;;5022519;28;20220;-57
2023/01/19 07:23:32;;;;;;;16.60;11.27;;;-2.10;99.90;;;;;;5027372;28;20229;-57
2023/01/19 07:26:00;;;;;;;21.30;11.60;;;-2.00;99.90;;;;;;5027559;28;20990;-56
2023/01/19 07:28:26;;;;;;;16.20;11.77;;;-2.00;99.90;;;;;;5027552;28;20215;-56
2023/01/19 07:30:53;;;;;;;16.43;11.80;;;-2.10;99.90;;;;;;5027015;28;20199;-57
2023/01/19 07:33:20;;;;;;;16.37;10.90;;;-2.10;99.90;;;;;;5025189;28;20208;-58
2023/01/19 07:35:47;;;;;;;15.37;10.87;;;-2.10;99.90;;;;;;5027235;28;20229;-56
2023/01/19 07:38:13;;;;;;;16.90;10.43;;;-2.20;99.90;;;;;;5028329;28;20205;-56
2023/01/19 07:40:38;;;;;;;15.57;10.60;;;-2.00;99.90;;;;;;5027285;28;20200;-56
2023/01/19 07:43:04;;;;;;;14.33;11.10;;;-2.00;99.90;;;;;;5027257;28;20209;-56
2023/01/19 07:45:29;;;;;;;14.87;11.57;;;-2.00;99.90;;;;;;5025066;28;20215;-56
2023/01/19 07:47:55;;;;;;;15.93;10.33;;;-2.00;99.90;;;;;;5028298;28;20274;-56
2023/01/19 07:50:23;;;;;;;13.93;10.73;;;-1.90;99.90;;;;;;5025311;28;20278;-58
2023/01/19 07:52:50;;;;;;;16.37;11.20;;;-1.90;99.90;;;;;;5026612;28;20546;-57
2023/01/19 07:55:16;;;;;;;16.73;10.93;;;-1.80;99.90;;;;;;5025753;28;20616;-57
2023/01/19 07:57:41;;;;;;;12.43;9.83;;;-1.60;99.90;;;;;;5026793;28;20210;-57
2023/01/19 08:00:08;;;;;;;12.13;10.83;;;-1.60;99.90;;;;;;5030188;28;20200;-57
2023/01/19 08:02:34;;;;;;;14.87;9.77;;;-1.60;99.90;;;;;;5024705;28;20195;-57
2023/01/19 08:05:00;;;;;;;16.97;10.30;;;-1.60;99.90;;;;;;5027094;28;20699;-57
2023/01/19 08:07:25;;;;;;;17.87;10.80;;;-1.70;99.90;;;;;;5025375;28;20200;-58
2023/01/19 08:09:51;;;;;;;14.50;10.80;;;-1.80;99.90;;;;;;5025945;28;20851;-58
2023/01/19 08:12:17;;;;;;;14.00;10.70;;;-1.70;99.90;;;;;;5025724;28;20662;-58
2023/01/19 08:14:42;;;;;;;13.13;10.30;;;-1.60;99.90;;;;;;5026089;28;20226;-56
2023/01/19 08:17:13;;;;;;;12.73;10.00;;;-1.60;99.90;;;;;;5025473;28;20208;-58
2023/01/19 08:19:39;;;;;;;13.87;9.93;;;-1.60;99.90;;;;;;5024617;28;20312;-57
2023/01/19 08:22:04;;;;;;;13.33;10.50;;;-1.50;99.90;;;;;;5035889;28;20286;-57
2023/01/19 08:24:30;;;;;;;16.53;9.03;;;-1.50;99.90;;;;;;5035900;28;20208;-57
2023/01/19 08:27:00;;;;;;;12.73;10.03;;;-1.50;99.90;;;;;;5036121;28;20212;-57
2023/01/19 08:29:26;;;;;;;10.80;8.53;;;-1.60;99.90;;;;;;5036057;28;20214;-57
2023/01/19 08:31:54;;;;;;;13.13;9.10;;;-1.60;99.90;;;;;;5034445;28;20201;-56
2023/01/19 08:34:20;;;;;;;14.30;9.07;;;-1.70;99.90;;;;;;5035878;28;20744;-57
2023/01/19 08:36:46;;;;;;;15.37;9.73;;;-1.70;99.90;;;;;;5036034;28;20199;-56
2023/01/19 08:39:12;;;;;;;15.70;9.40;;;-1.60;99.90;;;;;;5036133;28;20201;-56
2023/01/19 08:41:37;;;;;;;12.30;9.40;;;-1.50;99.90;;;;;;5036189;28;20267;-57
2023/01/19 08:44:03;;;;;;;13.93;9.50;;;-1.40;99.90;;;;;;5034465;28;20199;-57
2023/01/19 08:46:28;;;;;;;12.03;8.10;;;-1.40;99.90;;;;;;5035831;28;20762;-57
2023/01/19 08:48:54;;;;;;;11.90;8.43;;;-1.30;99.90;;;;;;5035777;28;20250;-57
2023/01/19 08:51:19;;;;;;;11.80;9.17;;;-1.30;99.90;;;;;;5035766;28;20573;-57
2023/01/19 08:53:45;;;;;;;13.67;8.27;;;-1.30;99.90;;;;;;5036019;28;20204;-57
2023/01/19 08:56:12;;;;;;;12.60;8.73;;;-1.30;99.90;;;;;;5033940;28;20273;-57
2023/01/19 08:58:43;;;;;;;11.57;8.30;;;-1.20;99.90;;;;;;5022088;28;20222;-57
2023/01/19 09:01:12;;;;;;;14.23;8.93;;;-1.20;99.90;;;;;;5035046;28;20234;-57
2023/01/19 09:03:38;;;;;;;14.97;9.47;;;-1.10;99.90;;;;;;5025436;28;20678;-57
2023/01/19 09:06:08;;;;;;;10.70;8.80;;;-1.00;99.90;;;;;;5033286;28;20291;-58
2023/01/19 09:08:33;;;;;;;13.10;9.40;;;-0.90;99.90;;;;;;5034787;28;20718;-58
2023/01/19 09:10:59;;;;;;;10.47;7.80;;;-0.80;99.90;;;;;;5034900;28;20235;-58
2023/01/19 09:13:24;;;;;;;12.57;8.50;;;-0.70;99.90;;;;;;5033564;28;20600;-56
2023/01/19 09:15:50;;;;;;;10.20;8.43;;;-0.60;99.90;;;;;;5035080;28;20251;-56
2023/01/19 09:18:20;;;;;;;13.40;8.33;;;-0.70;99.90;;;;;;5027594;28;20286;-56
2023/01/19 09:20:47;;;;;;;10.80;7.80;;;-0.70;99.90;;;;;;5030134;28;20295;-56
2023/01/19 09:23:15;;;;;;;15.00;7.63;;;-0.60;99.90;;;;;;5035291;28;20207;-56
2023/01/19 09:25:43;;;;;;;9.40;7.27;;;-0.60;99.90;;;;;;5035345;28;20204;-56
2023/01/19 09:28:10;;;;;;;9.73;7.47;;;-0.60;99.90;;;;;;5033044;28;20390;-57
2023/01/19 09:30:37;;;;;;;10.57;8.13;;;-0.50;99.90;;;;;;5035058;28;20206;-57
2023/01/19 09:33:05;;;;;;;11.17;7.93;;;-0.50;99.90;;;;;;5034816;28;20235;-57
2023/01/19 09:35:33;;;;;;;14.97;8.60;;;-0.40;99.90;;;;;;5034544;28;20686;-57
2023/01/19 09:37:59;;;;;;;9.13;8.10;;;-0.40;99.90;;;;;;5034772;28;20205;-57
2023/01/19 09:40:25;;;;;;;11.47;6.97;;;-0.40;99.90;;;;;;5032945;28;20254;-58
2023/01/19 09:42:56;;;;;;;8.30;6.97;;;-0.30;99.90;;;;;;5030224;28;20212;-58
2023/01/19 09:45:41;;;;;;;12.07;8.40;;;-0.20;99.90;;;;;;5034681;28;20205;-57
2023/01/19 09:48:24;;;;;;;8.47;6.63;;;-0.30;99.90;;;;;;5034302;28;20333;-57
2023/01/19 09:50:50;;;;;;;7.57;6.77;;;-0.20;99.90;;;;;;5029786;28;20208;-56
2023/01/19 09:53:33;;;;;;;10.87;7.87;;;-0.20;99.90;;;;;;5034104;28;20313;-57
2023/01/19 09:55:59;;;;;;;10.30;7.67;;;-0.10;99.90;;;;;;5022584;28;20273;-56
2023/01/19 09:58:24;;;;;;;9.83;7.37;;;-0.10;99.90;;;;;;5024957;28;20219;-57
2023/01/19 10:01:01;;;;;;;9.67;7.50;;;0.00;99.90;;;;;;5023890;28;20197;-57
2023/01/19 10:03:27;;;;;;;11.13;7.17;;;0.00;99.90;;;;;;5024995;28;20204;-57
2023/01/19 10:05:59;;;;;;;12.07;7.43;;;0.00;99.90;;;;;;5025454;28;20253;-57
2023/01/19 10:08:36;;;;;;;9.73;6.60;;;0.00;99.90;;;;;;5029259;28;20208;-57
2023/01/19 10:11:05;;;;;;;8.83;6.63;;;0.10;99.90;;;;;;5034572;28;20200;-57
2023/01/19 10:13:47;;;;;;;10.07;7.17;;;0.10;99.90;;;;;;5033686;28;20204;-57
2023/01/19 10:16:47;;;;;;;9.10;6.53;;;0.10;99.90;;;;;;5034675;28;20248;-59
2023/01/19 10:19:36;;;;;;;8.50;6.40;;;0.20;99.90;;;;;;5034720;28;20210;-57
2023/01/19 10:22:17;;;;;;;7.67;5.90;;;0.20;99.90;;;;;;5036035;28;20220;-58
2023/01/19 10:24:43;;;;;;;8.70;7.60;;;0.20;99.90;;;;;;5037222;28;20213;-60
2023/01/19 10:27:17;;;;;;;8.30;6.37;;;0.40;99.90;;;;;;5038072;28;20201;-58
2023/01/19 10:29:44;;;;;;;8.03;6.83;;;0.40;99.90;;;;;;5038025;28;20209;-57
2023/01/19 10:32:20;;;;;;;7.53;6.80;;;0.50;99.90;;;;;;5035820;28;20205;-58
2023/01/19 10:34:48;;;;;;;8.60;6.97;;;0.50;99.90;;;;;;5036949;28;20672;-59
2023/01/19 10:37:24;;;;;;;8.23;7.10;;;0.70;99.90;;;;;;5032867;28;20201;-57
2023/01/19 10:40:08;;;;;;;8.47;7.07;;;0.80;99.90;;;;;;5036217;28;20209;-57
2023/01/19 10:42:34;;;;;;;8.03;6.87;;;0.90;99.90;;;;;;5037794;28;20302;-58
2023/01/19 10:45:00;;;;;;;12.30;6.50;;;1.00;99.90;;;;;;5035738;28;20209;-57
2023/01/19 10:47:34;;;;;;;10.23;7.10;;;1.20;99.90;;;;;;5037823;28;20485;-57
2023/01/19 10:50:22;;;;;;;8.50;7.13;;;1.30;99.90;;;;;;5037752;28;20244;-56
2023/01/19 10:52:53;;;;;;;8.37;6.53;;;1.40;99.90;;;;;;5026192;28;20671;-57
2023/01/19 10:55:28;;;;;;;8.43;7.00;;;1.50;99.90;;;;;;5035530;28;20229;-58
2023/01/19 10:57:55;;;;;;;10.20;7.03;;;1.70;99.90;;;;;;5028439;28;20698;-57
2023/01/19 11:00:36;;;;;;;10.40;6.50;;;1.80;99.90;;;;;;5032846;28;20889;-58
2023/01/19 11:03:03;;;;;;;9.53;6.67;;;1.90;99.90;;;;;;5029821;28;20246;-59
2023/01/19 11:05:32;;;;;;;11.53;7.10;;;2.00;99.90;;;;;;5025657;28;20207;-57
2023/01/19 11:07:58;;;;;;;8.30;6.13;;;2.00;99.90;;;;;;5026256;28;20299;-58
2023/01/19 11:10:27;;;;;;;8.00;6.63;;;2.10;99.90;;;;;;5025848;28;20323;-58
2023/01/19 11:13:11;;;;;;;8.83;7.70;;;2.10;99.90;;;;;;5026040;28;20679;-57
2023/01/19 11:15:57;;;;;;;10.07;7.10;;;2.10;99.90;;;;;;5026791;28;20217;-58
2023/01/19 11:18:29;;;;;;;10.30;6.80;;;2.10;99.90;;;;;;5025843;28;20282;-58
2023/01/19 11:20:57;;;;;;;7.90;6.20;;;2.20;99.90;;;;;;5024302;28;20236;-57
2023/01/19 11:23:29;;;;;;;9.33;6.70;;;2.30;99.90;;;;;;5027231;28;20279;-57
2023/01/19 11:25:59;;;;;;;12.73;6.50;;;2.40;99.90;;;;;;5022567;28;20654;-57
2023/01/19 11:28:33;;;;;;;12.13;6.93;;;2.50;99.90;;;;;;5024715;28;20215;-58
2023/01/19 11:31:08;;;;;;;8.53;6.23;;;2.70;99.90;;;;;;5030102;28;20238;-58
2023/01/19 11:33:41;;;;;;;8.93;6.67;;;2.90;99.90;;;;;;5026668;28;20211;-58
2023/01/19 11:36:34;;;;;;;11.57;7.03;;;3.20;99.90;;;;;;5019545;28;20306;-58
2023/01/19 11:39:22;;;;;;;9.33;6.20;;;3.30;99.90;;;;;;5022223;28;20627;-58
2023/01/19 11:41:55;;;;;;;7.00;6.30;;;3.40;99.90;;;;;;5018285;28;20210;-59
2023/01/19 11:44:26;;;;;;;8.87;6.83;;;3.60;99.90;;;;;;5027326;28;20937;-59
2023/01/19 11:46:56;;;;;;;10.27;7.00;;;3.80;99.90;;;;;;5022160;28;20210;-59
2023/01/19 11:49:59;;;;;;;9.27;6.37;;;4.00;99.90;;;;;;5028513;28;20229;-65
2023/01/19 11:52:36;;;;;;;8.40;6.73;;;4.00;99.90;;;;;;5021665;28;20292;-65
2023/01/19 11:55:29;;;;;;;7.07;5.97;;;4.30;99.90;;;;;;5025251;28;20222;-66
2023/01/19 11:57:55;;;;;;;8.03;6.47;;;4.60;99.90;;;;;;5026015;28;20196;-65
2023/01/19 12:00:38;;;;;;;9.57;7.10;;;4.80;99.90;;;;;;5025309;28;20703;-67
2023/01/19 12:03:16;;;;;;;7.60;6.73;;;5.10;99.90;;;;;;5034857;28;20209;-65
2023/01/19 12:05:48;;;;;;;7.93;7.00;;;5.40;99.90;;;;;;5031427;28;20207;-64
2023/01/19 12:08:21;;;;;;;9.47;6.67;;;5.80;99.90;;;;;;5035977;28;20199;-65
2023/01/19 12:10:48;;;;;;;7.47;6.13;;;6.10;99.90;;;;;;5036068;28;20569;-65
2023/01/19 12:13:22;;;;;;;7.03;6.33;;;6.30;99.10;;;;;;5036812;28;20215;-64
2023/01/19 12:15:56;;;;;;;8.63;6.37;;;6.20;98.70;;;;;;5036307;28;20692;-64
2023/01/19 12:18:26;;;;;;;8.47;6.37;;;6.30;99.10;;;;;;5036550;28;20211;-65
2023/01/19 12:20:54;;;;;;;6.33;5.73;;;6.60;98.80;;;;;;5036511;28;20686;-71
2023/01/19 12:23:27;;;;;;;8.20;6.80;;;6.90;98.20;;;;;;5036767;28;20195;-59
2023/01/19 12:26:29;;;;;;;8.53;7.20;;;7.40;97.80;;;;;;5034150;28;20233;-59
2023/01/19 12:29:14;;;;;;;8.87;6.20;;;7.90;96.70;;;;;;5031789;28;20293;-59
2023/01/19 12:31:41;;;;;;;15.77;10.50;;;8.20;95.50;;;;;;5032440;28;20570;-59
2023/01/19 12:34:23;;;;;;;8.57;6.07;;;8.40;95.50;;;;;;5035947;28;20207;-59
2023/01/19 12:36:49;;;;;;;8.63;6.50;;;8.70;94.40;;;;;;5033810;28;20293;-59
2023/01/19 12:39:22;;;;;;;7.03;6.33;;;9.00;93.10;;;;;;5035904;28;20725;-60
2023/01/19 12:42:02;;;;;;;9.97;7.40;;;9.20;92.80;;;;;;5036323;28;20553;-60
2023/01/19 12:44:29;;;;;;;8.77;6.30;;;9.30;92.30;;;;;;5034711;28;20199;-60
2023/01/19 12:47:05;;;;;;;7.63;5.80;;;9.50;91.10;;;;;;5036432;28;20210;-61
2023/01/19 12:49:38;;;;;;;7.73;5.87;;;9.40;91.30;;;;;;5035644;28;20222;-61
2023/01/19 12:52:32;;;;;;;7.40;5.47;;;9.00;91.80;;;;;;5036327;28;20448;-60
2023/01/19 12:55:13;;;;;;;6.80;5.73;;;9.00;91.10;;;;;;5027874;28;20244;-61
2023/01/19 12:58:04;;;;;;;8.27;6.23;;;9.20;91.40;;;;;;5036138;28;20248;-60